createdAt,value
2023-05-04T00:00:20.534Z,96054
2023-05-04T00:01:29.180Z,96056
2023-05-04T00:02:37.900Z,96057
2023-05-04T00:03:46.769Z,96054
2023-05-04T00:04:55.233Z,96057
2023-05-04T00:06:04.813Z,96053
2023-05-04T00:07:14.529Z,96052
2023-05-04T00:08:23.166Z,96051
2023-05-04T00:09:31.861Z,96050
2023-05-04T00:10:40.614Z,96053
2023-05-04T00:11:49.294Z,96048
2023-05-04T00:12:59.031Z,96051
2023-05-04T00:14:08.671Z,96047
2023-05-04T00:15:17.361Z,96048
2023-05-04T00:16:26.039Z,96048
2023-05-04T00:17:33.720Z,96046
2023-05-04T00:18:42.520Z,96045
2023-05-04T00:19:51.179Z,96046
2023-05-04T00:20:59.898Z,96047
2023-05-04T00:22:09.708Z,96046
2023-05-04T00:23:18.466Z,96046
2023-05-04T00:24:26.110Z,96043
2023-05-04T00:25:35.785Z,96039
2023-05-04T00:26:43.470Z,96036
2023-05-04T00:27:52.329Z,96038
2023-05-04T00:29:01.019Z,96038
2023-05-04T00:30:10.679Z,96036
2023-05-04T00:31:20.382Z,96035
2023-05-04T00:32:28.100Z,96031
2023-05-04T00:33:37.778Z,96028
2023-05-04T00:34:47.466Z,96030
2023-05-04T00:35:56.129Z,96030
2023-05-04T00:37:04.829Z,96026
2023-05-04T00:38:13.508Z,96029
2023-05-04T00:39:22.232Z,96026
2023-05-04T00:40:31.952Z,96028
2023-05-04T00:41:48.457Z,96026
2023-05-04T00:42:58.122Z,96025
2023-05-04T00:44:05.880Z,96020
2023-05-04T00:45:15.526Z,96020
2023-05-04T00:46:25.239Z,96022
2023-05-04T00:47:33.972Z,96018
2023-05-04T00:48:42.586Z,96023
2023-05-04T00:49:52.272Z,96018
2023-05-04T00:51:00.914Z,96020
2023-05-04T00:52:10.613Z,96023
2023-05-04T00:53:21.273Z,96028
2023-05-04T00:54:30.918Z,96029
2023-05-04T00:55:40.579Z,96023
2023-05-04T00:56:49.261Z,96027
2023-05-04T00:57:58.920Z,96024
2023-05-04T00:59:07.656Z,96028
2023-05-04T01:00:16.330Z,96029
2023-05-04T01:01:26.031Z,96030
2023-05-04T01:02:34.689Z,96024
2023-05-04T01:03:43.324Z,96023
2023-05-04T01:04:52.964Z,96027
2023-05-04T01:06:00.601Z,96029
2023-05-04T01:07:11.290Z,96030
2023-05-04T01:08:19.980Z,96027
2023-05-04T01:09:28.666Z,96027
2023-05-04T01:10:38.323Z,96024
2023-05-04T01:11:46.009Z,96023
2023-05-04T01:12:55.743Z,96025
2023-05-04T01:14:05.456Z,96025
2023-05-04T01:15:13.102Z,96022
2023-05-04T01:16:22.025Z,96027
2023-05-04T01:17:31.541Z,96022
2023-05-04T01:18:40.193Z,96021
2023-05-04T01:19:49.864Z,96020
2023-05-04T01:20:57.502Z,96026
2023-05-04T01:22:06.144Z,96026
2023-05-04T01:23:15.869Z,96026
2023-05-04T01:24:24.536Z,96022
2023-05-04T01:25:33.210Z,96023
2023-05-04T01:26:41.890Z,96026
2023-05-04T01:27:50.558Z,96025
2023-05-04T01:29:00.255Z,96024
2023-05-04T01:30:09.968Z,96020
2023-05-04T01:31:19.705Z,96026
2023-05-04T01:32:29.526Z,96023
2023-05-04T01:33:39.004Z,96025
2023-05-04T01:34:47.704Z,96021
2023-05-04T01:35:56.354Z,96022
2023-05-04T01:37:05.008Z,96025
2023-05-04T01:38:14.676Z,96023
2023-05-04T01:39:23.333Z,96023
2023-05-04T01:40:33.023Z,96023
2023-05-04T01:41:42.675Z,96020
2023-05-04T01:42:51.376Z,96022
2023-05-04T01:44:01.012Z,96018
2023-05-04T01:45:09.679Z,96025
2023-05-04T01:46:18.457Z,96020
2023-05-04T01:47:28.036Z,96023
2023-05-04T01:48:36.796Z,96024
2023-05-04T01:49:46.469Z,96023
2023-05-04T01:50:56.144Z,96026
2023-05-04T01:52:04.791Z,96021
2023-05-04T01:53:14.509Z,96011
2023-05-04T01:54:23.215Z,96019
2023-05-04T01:55:31.935Z,96016
2023-05-04T01:56:39.586Z,96016
2023-05-04T01:57:48.260Z,96013
2023-05-04T01:58:57.960Z,96010
2023-05-04T02:00:06.001Z,96013
2023-05-04T02:01:13.311Z,96014
2023-05-04T02:02:22.933Z,96013
2023-05-04T02:03:31.695Z,96014
2023-05-04T02:04:40.383Z,96012
2023-05-04T02:05:49.917Z,96010
2023-05-04T02:06:58.541Z,96010
2023-05-04T02:08:08.200Z,96012
2023-05-04T02:09:16.855Z,96015
2023-05-04T02:10:25.520Z,96013
2023-05-04T02:11:35.219Z,96013
2023-05-04T02:12:42.992Z,96010
2023-05-04T02:13:52.537Z,96012
2023-05-04T02:15:03.195Z,96013
2023-05-04T02:16:11.851Z,96009
2023-05-04T02:17:20.552Z,96010
2023-05-04T02:18:29.189Z,96011
2023-05-04T02:19:37.914Z,96011
2023-05-04T02:20:47.680Z,96011
2023-05-04T02:21:56.330Z,96008
2023-05-04T02:23:06.019Z,96006
2023-05-04T02:24:14.710Z,96010
2023-05-04T02:25:23.426Z,96011
2023-05-04T02:26:33.162Z,96008
2023-05-04T02:27:42.790Z,96012
2023-05-04T02:28:52.481Z,96017
2023-05-04T02:30:02.237Z,96015
2023-05-04T02:31:10.799Z,96014
2023-05-04T02:32:19.452Z,96013
2023-05-04T02:33:29.141Z,96014
2023-05-04T02:34:38.892Z,96014
2023-05-04T02:35:48.546Z,96018
2023-05-04T02:36:57.231Z,96015
2023-05-04T02:38:05.891Z,96014
2023-05-04T02:39:15.577Z,96016
2023-05-04T02:40:23.226Z,96013
2023-05-04T02:41:31.891Z,96012
2023-05-04T02:42:41.537Z,96008
2023-05-04T02:43:51.205Z,96005
2023-05-04T02:45:00.868Z,96010
2023-05-04T02:46:09.576Z,96011
2023-05-04T02:47:18.190Z,96009
2023-05-04T02:48:27.866Z,96012
2023-05-04T02:49:36.553Z,96009
2023-05-04T02:50:45.226Z,96011
2023-05-04T02:51:53.891Z,96010
2023-05-04T02:53:02.619Z,96011
2023-05-04T02:54:12.294Z,96015
2023-05-04T02:55:19.964Z,96008
2023-05-04T02:56:28.610Z,96013
2023-05-04T02:57:38.309Z,96011
2023-05-04T02:58:45.962Z,96012
2023-05-04T02:59:54.662Z,96011
2023-05-04T03:01:04.385Z,96010
2023-05-04T03:02:12.988Z,96014
2023-05-04T03:03:22.701Z,96012
2023-05-04T03:04:30.409Z,96012
2023-05-04T03:05:40.112Z,96014
2023-05-04T03:06:49.808Z,96011
2023-05-04T03:07:57.468Z,96014
2023-05-04T03:09:06.246Z,96014
2023-05-04T03:10:15.790Z,96009
2023-05-04T03:11:25.462Z,96014
2023-05-04T03:12:35.223Z,96010
2023-05-04T03:13:44.901Z,96008
2023-05-04T03:14:53.618Z,96007
2023-05-04T03:16:03.308Z,96007
2023-05-04T03:17:11.931Z,96009
2023-05-04T03:18:21.600Z,96010
2023-05-04T03:19:29.251Z,96012
2023-05-04T03:20:37.948Z,96016
2023-05-04T03:21:47.664Z,96012
2023-05-04T03:22:56.374Z,96012
2023-05-04T03:24:06.084Z,96008
2023-05-04T03:25:15.813Z,96012
2023-05-04T03:26:25.442Z,96011
2023-05-04T03:27:35.083Z,96011
2023-05-04T03:28:44.735Z,96012
2023-05-04T03:29:54.506Z,96013
2023-05-04T03:31:04.184Z,96010
2023-05-04T03:32:12.929Z,96012
2023-05-04T03:33:22.515Z,96004
2023-05-04T03:34:32.265Z,96008
2023-05-04T03:35:40.134Z,96011
2023-05-04T03:36:48.859Z,96008
2023-05-04T03:37:57.507Z,96007
2023-05-04T03:39:07.175Z,96007
2023-05-04T03:40:15.845Z,96004
2023-05-04T03:41:25.519Z,96000
2023-05-04T03:42:34.202Z,95998
2023-05-04T03:43:43.863Z,96000
2023-05-04T03:44:52.521Z,96003
2023-05-04T03:46:02.269Z,96002
2023-05-04T03:47:10.903Z,96001
2023-05-04T03:48:19.572Z,96004
2023-05-04T03:49:28.225Z,96006
2023-05-04T03:50:36.964Z,96008
2023-05-04T03:51:46.652Z,96004
2023-05-04T03:52:55.381Z,96007
2023-05-04T03:54:04.032Z,96006
2023-05-04T03:55:13.758Z,96005
2023-05-04T03:56:22.404Z,96001
2023-05-04T03:57:31.083Z,96000
2023-05-04T03:58:40.706Z,96007
2023-05-04T03:59:49.440Z,96006
2023-05-04T04:01:00.155Z,96003
2023-05-04T04:02:07.917Z,96003
2023-05-04T04:03:16.687Z,96004
2023-05-04T04:04:26.224Z,96000
2023-05-04T04:05:35.930Z,95998
2023-05-04T04:06:44.621Z,95996
2023-05-04T04:07:53.289Z,95993
2023-05-04T04:09:01.930Z,96000
2023-05-04T04:10:11.632Z,95999
2023-05-04T04:11:19.312Z,95995
2023-05-04T04:12:29.021Z,95998
2023-05-04T04:13:38.681Z,96000
2023-05-04T04:14:48.318Z,95998
2023-05-04T04:15:58.068Z,96002
2023-05-04T04:17:07.737Z,96005
2023-05-04T04:18:16.392Z,96003
2023-05-04T04:19:26.063Z,96002
2023-05-04T04:20:34.734Z,96002
2023-05-04T04:21:44.404Z,96004
2023-05-04T04:22:54.171Z,96002
2023-05-04T04:24:01.864Z,96006
2023-05-04T04:25:10.548Z,96007
2023-05-04T04:26:20.223Z,96008
2023-05-04T04:27:29.872Z,96002
2023-05-04T04:28:39.536Z,96005
2023-05-04T04:29:48.227Z,96003
2023-05-04T04:30:56.973Z,96005
2023-05-04T04:32:06.594Z,96006
2023-05-04T04:33:15.245Z,96004
2023-05-04T04:34:24.923Z,96000
2023-05-04T04:35:33.597Z,96004
2023-05-04T04:36:42.230Z,96007
2023-05-04T04:37:51.941Z,96007
2023-05-04T04:39:00.631Z,96012
2023-05-04T04:40:10.384Z,96011
2023-05-04T04:41:20.022Z,96007
2023-05-04T04:42:27.651Z,96009
2023-05-04T04:43:36.306Z,96009
2023-05-04T04:44:46.004Z,96011
2023-05-04T04:45:54.736Z,96010
2023-05-04T04:47:04.419Z,96011
2023-05-04T04:48:11.218Z,96011
2023-05-04T04:49:19.761Z,96012
2023-05-04T04:50:29.457Z,96009
2023-05-04T04:51:37.090Z,96009
2023-05-04T04:52:45.747Z,96010
2023-05-04T04:53:55.397Z,96013
2023-05-04T04:55:04.112Z,96013
2023-05-04T04:56:12.803Z,96011
2023-05-04T04:57:21.442Z,96016
2023-05-04T04:58:31.076Z,96015
2023-05-04T04:59:40.745Z,96014
2023-05-04T05:00:48.442Z,96013
2023-05-04T05:01:58.120Z,96019
2023-05-04T05:03:07.844Z,96025
2023-05-04T05:04:16.508Z,96022
2023-05-04T05:05:26.196Z,96016
2023-05-04T05:06:34.861Z,96022
2023-05-04T05:07:44.520Z,96016
2023-05-04T05:08:54.172Z,96018
2023-05-04T05:10:03.001Z,96019
2023-05-04T05:11:11.593Z,96018
2023-05-04T05:12:20.220Z,96021
2023-05-04T05:13:29.897Z,96025
2023-05-04T05:14:39.578Z,96022
2023-05-04T05:15:47.259Z,96027
2023-05-04T05:16:56.981Z,96021
2023-05-04T05:18:06.715Z,96019
2023-05-04T05:19:16.263Z,96020
2023-05-04T05:20:25.938Z,96028
2023-05-04T05:21:34.682Z,96021
2023-05-04T05:22:44.373Z,96024
2023-05-04T05:23:54.025Z,96023
2023-05-04T05:25:01.706Z,96023
2023-05-04T05:26:11.349Z,96025
2023-05-04T05:27:20.026Z,96023
2023-05-04T05:28:28.665Z,96023
2023-05-04T05:29:38.403Z,96023
2023-05-04T05:30:48.134Z,96023
2023-05-04T05:31:57.776Z,96023
2023-05-04T05:33:07.507Z,96022
2023-05-04T05:34:15.186Z,96019
2023-05-04T05:35:24.872Z,96023
2023-05-04T05:36:34.565Z,96021
2023-05-04T05:37:43.271Z,96017
2023-05-04T05:38:51.955Z,96014
2023-05-04T05:40:01.695Z,96015
2023-05-04T05:41:11.354Z,96019
2023-05-04T05:42:21.053Z,96021
2023-05-04T05:43:30.725Z,96020
2023-05-04T05:44:40.603Z,96022
2023-05-04T05:45:48.262Z,96018
2023-05-04T05:46:56.918Z,96015
2023-05-04T05:48:06.736Z,96020
2023-05-04T05:49:14.359Z,96018
2023-05-04T05:50:24.120Z,96023
2023-05-04T05:51:33.756Z,96022
2023-05-04T05:52:43.493Z,96018
2023-05-04T05:53:53.201Z,96020
2023-05-04T05:55:02.522Z,96020
2023-05-04T05:56:09.553Z,96019
2023-05-04T05:57:19.228Z,96019
2023-05-04T05:58:27.896Z,96016
2023-05-04T05:59:37.696Z,96013
2023-05-04T06:00:46.377Z,96016
2023-05-04T06:01:55.023Z,96020
2023-05-04T06:03:04.784Z,96019
2023-05-04T06:04:13.787Z,96023
2023-05-04T06:05:23.495Z,96020
2023-05-04T06:06:33.357Z,96024
2023-05-04T06:07:43.062Z,96027
2023-05-04T06:08:52.912Z,96022
2023-05-04T06:10:01.643Z,96020
2023-05-04T06:11:09.398Z,96021
2023-05-04T06:12:19.080Z,96018
2023-05-04T06:13:26.759Z,96017
2023-05-04T06:14:35.424Z,96019
2023-05-04T06:15:45.250Z,96015
2023-05-04T06:16:53.950Z,96017
2023-05-04T06:18:03.763Z,96015
2023-05-04T06:19:13.360Z,96016
2023-05-04T06:20:23.102Z,96017
2023-05-04T06:21:32.857Z,96016
2023-05-04T06:22:41.625Z,96011
2023-05-04T06:23:51.275Z,96010
2023-05-04T06:25:03.885Z,96019
2023-05-04T06:26:11.646Z,96016
2023-05-04T06:27:20.993Z,96018
2023-05-04T06:28:30.039Z,96022
2023-05-04T06:29:38.709Z,96022
2023-05-04T06:30:48.459Z,96019
2023-05-04T06:31:57.202Z,96020
2023-05-04T06:33:06.875Z,96018
2023-05-04T06:34:16.498Z,96012
2023-05-04T06:35:25.302Z,96007
2023-05-04T06:36:34.023Z,96013
2023-05-04T06:37:42.701Z,96008
2023-05-04T06:38:51.490Z,96008
2023-05-04T06:40:01.174Z,96010
2023-05-04T06:41:10.854Z,96009
2023-05-04T06:42:19.618Z,96005
2023-05-04T06:43:29.320Z,96009
2023-05-04T06:44:37.985Z,96006
2023-05-04T06:45:46.762Z,96011
2023-05-04T06:46:55.412Z,96009
2023-05-04T06:48:05.164Z,96009
2023-05-04T06:49:15.811Z,96013
2023-05-04T06:50:25.526Z,96011
2023-05-04T06:51:35.231Z,96001
2023-05-04T06:52:44.965Z,96006
2023-05-04T06:53:54.658Z,96005
2023-05-04T06:55:04.329Z,96000
2023-05-04T06:56:13.121Z,96001
2023-05-04T06:57:21.820Z,96004
2023-05-04T06:58:31.554Z,96006
2023-05-04T06:59:40.218Z,96001
2023-05-04T07:00:48.923Z,96007
2023-05-04T07:01:58.568Z,96008
2023-05-04T07:03:08.283Z,96009
2023-05-04T07:04:17.907Z,96008
2023-05-04T07:05:27.598Z,96009
2023-05-04T07:06:37.281Z,96007
2023-05-04T07:07:47.009Z,96008
2023-05-04T07:08:56.714Z,96008
2023-05-04T07:10:06.488Z,96004
2023-05-04T07:11:16.118Z,96011
2023-05-04T07:12:25.772Z,96003
2023-05-04T07:13:34.449Z,96000
2023-05-04T07:14:44.089Z,95998
2023-05-04T07:15:52.811Z,96002
2023-05-04T07:17:02.481Z,95999
2023-05-04T07:18:11.173Z,96001
2023-05-04T07:19:19.875Z,96003
2023-05-04T07:20:29.554Z,96005
2023-05-04T07:21:37.273Z,95999
2023-05-04T07:22:45.965Z,96000
2023-05-04T07:23:53.647Z,96003
2023-05-04T07:25:03.342Z,96000
2023-05-04T07:26:12.980Z,95997
2023-05-04T07:27:22.665Z,95996
2023-05-04T07:28:31.324Z,95994
2023-05-04T07:29:41.019Z,95997
2023-05-04T07:30:49.709Z,95995
2023-05-04T07:32:00.389Z,95994
2023-05-04T07:33:10.125Z,95994
2023-05-04T07:34:19.164Z,95996
2023-05-04T07:35:29.430Z,95993
2023-05-04T07:36:38.535Z,95995
2023-05-04T07:37:48.230Z,95996
2023-05-04T07:38:57.922Z,95996
2023-05-04T07:40:06.119Z,95996
2023-05-04T07:41:15.337Z,95994
2023-05-04T07:42:23.069Z,95992
2023-05-04T07:43:31.711Z,95995
2023-05-04T07:44:40.390Z,95994
2023-05-04T07:45:49.102Z,95994
2023-05-04T07:46:56.809Z,95998
2023-05-04T07:48:06.554Z,95996
2023-05-04T07:49:15.159Z,95995
2023-05-04T07:50:24.894Z,95994
2023-05-04T07:51:34.598Z,95993
2023-05-04T07:52:44.268Z,95992
2023-05-04T07:53:52.945Z,95996
2023-05-04T07:55:02.619Z,95997
2023-05-04T07:56:12.304Z,95997
2023-05-04T07:57:21.070Z,96001
2023-05-04T07:58:30.751Z,95995
2023-05-04T07:59:40.447Z,96000
2023-05-04T08:00:49.116Z,95994
2023-05-04T08:01:58.870Z,95999
2023-05-04T08:03:07.512Z,95998
2023-05-04T08:04:16.156Z,95997
2023-05-04T08:05:25.849Z,95999
2023-05-04T08:06:35.504Z,95997
2023-05-04T08:07:45.164Z,95993
2023-05-04T08:08:54.838Z,95992
2023-05-04T08:10:03.794Z,95994
2023-05-04T08:11:19.822Z,95988
2023-05-04T08:12:23.948Z,95988
2023-05-04T08:13:33.575Z,95996
2023-05-04T08:14:43.307Z,95993
2023-05-04T08:15:53.091Z,95982
2023-05-04T08:17:02.775Z,95990
2023-05-04T08:18:12.483Z,95987
2023-05-04T08:19:20.196Z,95990
2023-05-04T08:20:28.834Z,95990
2023-05-04T08:21:37.614Z,95984
2023-05-04T08:22:47.287Z,95980
2023-05-04T08:23:57.082Z,95983
2023-05-04T08:25:04.916Z,95987
2023-05-04T08:26:13.391Z,95988
2023-05-04T08:27:23.081Z,95985
2023-05-04T08:28:30.825Z,95988
2023-05-04T08:29:40.506Z,95989
2023-05-04T08:30:51.333Z,95986
2023-05-04T08:31:59.348Z,95991
2023-05-04T08:33:08.933Z,95990
2023-05-04T08:34:16.607Z,95986
2023-05-04T08:35:25.301Z,95991
2023-05-04T08:36:34.960Z,95992
2023-05-04T08:37:43.664Z,95989
2023-05-04T08:38:52.362Z,95993
2023-05-04T08:40:02.056Z,95992
2023-05-04T08:41:10.709Z,95994
2023-05-04T08:42:20.427Z,95994
2023-05-04T08:43:30.132Z,95989
2023-05-04T08:44:38.860Z,95987
2023-05-04T08:45:48.608Z,95987
2023-05-04T08:46:56.248Z,95989
2023-05-04T08:48:05.960Z,95995
2023-05-04T08:49:14.641Z,95985
2023-05-04T08:50:24.301Z,95985
2023-05-04T08:51:33.959Z,95988
2023-05-04T08:52:41.717Z,95987
2023-05-04T08:53:51.392Z,95987
2023-05-04T08:55:01.138Z,95987
2023-05-04T08:56:09.797Z,95993
2023-05-04T08:57:19.476Z,95987
2023-05-04T08:58:29.162Z,95989
2023-05-04T08:59:38.842Z,95991
2023-05-04T09:00:48.601Z,95988
2023-05-04T09:01:57.248Z,95987
2023-05-04T09:03:05.954Z,95988
2023-05-04T09:04:16.606Z,95982
2023-05-04T09:05:24.300Z,95983
2023-05-04T09:06:33.016Z,95977
2023-05-04T09:07:42.674Z,95983
2023-05-04T09:08:51.360Z,95985
2023-05-04T09:10:01.107Z,95986
2023-05-04T09:11:09.803Z,95987
2023-05-04T09:12:19.497Z,95985
2023-05-04T09:13:29.132Z,95980
2023-05-04T09:14:37.871Z,95984
2023-05-04T09:15:45.533Z,95981
2023-05-04T09:16:54.409Z,95989
2023-05-04T09:18:03.916Z,95988
2023-05-04T09:19:13.543Z,95987
2023-05-04T09:20:22.284Z,95987
2023-05-04T09:21:30.990Z,95981
2023-05-04T09:22:40.639Z,95981
2023-05-04T09:23:48.373Z,95980
2023-05-04T09:24:57.035Z,95973
2023-05-04T09:26:06.708Z,95974
2023-05-04T09:27:15.380Z,95976
2023-05-04T09:28:26.136Z,95971
2023-05-04T09:29:34.867Z,95978
2023-05-04T09:30:44.597Z,95970
2023-05-04T09:31:54.217Z,95971
2023-05-04T09:33:01.939Z,95973
2023-05-04T09:34:11.574Z,95973
2023-05-04T09:35:29.571Z,95971
2023-05-04T09:36:30.862Z,95973
2023-05-04T09:37:40.580Z,95973
2023-05-04T09:38:49.364Z,95976
2023-05-04T09:39:58.978Z,95975
2023-05-04T09:41:07.701Z,95972
2023-05-04T09:42:17.391Z,95970
2023-05-04T09:43:27.136Z,95967
2023-05-04T09:44:36.781Z,95968
2023-05-04T09:45:46.447Z,95969
2023-05-04T09:46:55.151Z,95971
2023-05-04T09:48:04.921Z,95970
2023-05-04T09:49:14.594Z,95970
2023-05-04T09:50:23.385Z,95966
2023-05-04T09:51:32.002Z,95965
2023-05-04T09:52:41.666Z,95966
2023-05-04T09:53:50.347Z,95971
2023-05-04T09:55:00.016Z,95971
2023-05-04T09:56:09.815Z,95973
2023-05-04T09:57:19.499Z,95968
2023-05-04T09:58:29.181Z,95973
2023-05-04T09:59:37.876Z,95966
2023-05-04T10:00:46.512Z,95966
2023-05-04T10:01:57.355Z,95957
2023-05-04T10:03:06.888Z,95960
2023-05-04T10:04:16.653Z,95954
2023-05-04T10:05:26.226Z,95955
2023-05-04T10:06:34.909Z,95957
2023-05-04T10:07:44.646Z,95948
2023-05-04T10:08:53.330Z,95948
2023-05-04T10:10:03.034Z,95946
2023-05-04T10:11:12.743Z,95948
2023-05-04T10:12:20.426Z,95942
2023-05-04T10:13:29.106Z,95945
2023-05-04T10:14:38.777Z,95946
2023-05-04T10:15:47.481Z,95943
2023-05-04T10:16:57.135Z,95947
2023-05-04T10:18:05.840Z,95945
2023-05-04T10:19:15.537Z,95939
2023-05-04T10:20:25.290Z,95940
2023-05-04T10:21:33.995Z,95939
2023-05-04T10:22:44.643Z,95941
2023-05-04T10:23:53.322Z,95942
2023-05-04T10:25:00.962Z,95941
2023-05-04T10:26:10.664Z,95936
2023-05-04T10:27:18.306Z,95942
2023-05-04T10:28:27.966Z,95939
2023-05-04T10:29:37.664Z,95945
2023-05-04T10:30:45.332Z,95947
2023-05-04T10:31:55.080Z,95942
2023-05-04T10:33:03.759Z,95944
2023-05-04T10:34:12.351Z,95937
2023-05-04T10:35:22.052Z,95935
2023-05-04T10:36:30.765Z,95935
2023-05-04T10:37:39.381Z,95938
2023-05-04T10:38:49.099Z,95937
2023-05-04T10:39:56.806Z,95940
2023-05-04T10:41:05.475Z,95938
2023-05-04T10:42:15.229Z,95929
2023-05-04T10:43:24.913Z,95934
2023-05-04T10:44:34.640Z,95925
2023-05-04T10:45:43.349Z,95930
2023-05-04T10:46:53.042Z,95930
2023-05-04T10:48:02.771Z,95929
2023-05-04T10:49:11.436Z,95934
2023-05-04T10:50:20.161Z,95929
2023-05-04T10:51:35.919Z,95926
2023-05-04T10:52:40.579Z,95923
2023-05-04T10:53:50.210Z,95925
2023-05-04T10:54:59.934Z,95926
2023-05-04T10:56:08.794Z,95923
2023-05-04T10:57:18.447Z,95919
2023-05-04T10:58:26.152Z,95915
2023-05-04T10:59:36.785Z,95919
2023-05-04T11:00:45.541Z,95919
2023-05-04T11:01:54.356Z,95914
2023-05-04T11:03:03.161Z,95914
2023-05-04T11:04:10.792Z,95910
2023-05-04T11:05:19.429Z,95914
2023-05-04T11:06:29.094Z,95912
2023-05-04T11:07:38.799Z,95914
2023-05-04T11:08:48.498Z,95916
2023-05-04T11:09:57.177Z,95911
2023-05-04T11:11:05.905Z,95911
2023-05-04T11:12:15.648Z,95908
2023-05-04T11:13:23.498Z,95909
2023-05-04T11:14:33.113Z,95910
2023-05-04T11:15:42.768Z,95912
2023-05-04T11:16:52.537Z,95908
2023-05-04T11:18:02.190Z,95907
2023-05-04T11:19:12.835Z,95909
2023-05-04T11:20:21.500Z,95905
2023-05-04T11:21:31.176Z,95911
2023-05-04T11:22:39.853Z,95899
2023-05-04T11:23:49.520Z,95904
2023-05-04T11:24:59.210Z,95904
2023-05-04T11:26:08.013Z,95903
2023-05-04T11:27:17.646Z,95904
2023-05-04T11:28:26.295Z,95902
2023-05-04T11:29:34.953Z,95904
2023-05-04T11:30:44.796Z,95903
2023-05-04T11:31:53.564Z,95897
2023-05-04T11:33:03.215Z,95902
2023-05-04T11:34:12.832Z,95903
2023-05-04T11:35:21.502Z,95901
2023-05-04T11:36:31.231Z,95897
2023-05-04T11:37:38.863Z,95892
2023-05-04T11:38:48.528Z,95898
2023-05-04T11:39:57.217Z,95889
2023-05-04T11:41:06.909Z,95888
2023-05-04T11:42:16.540Z,95891
2023-05-04T11:43:26.231Z,95894
2023-05-04T11:44:34.948Z,95888
2023-05-04T11:45:44.656Z,95881
2023-05-04T11:46:53.442Z,95884
2023-05-04T11:48:02.033Z,95883
2023-05-04T11:49:11.684Z,95879
2023-05-04T11:50:20.380Z,95874
2023-05-04T11:51:30.053Z,95866
2023-05-04T11:52:38.728Z,95872
2023-05-04T11:53:47.378Z,95869
2023-05-04T11:54:57.062Z,95866
2023-05-04T11:56:05.807Z,95869
2023-05-04T11:57:15.590Z,95859
2023-05-04T11:58:25.200Z,95864
2023-05-04T11:59:34.926Z,95853
2023-05-04T12:00:44.581Z,95857
2023-05-04T12:01:52.291Z,95863
2023-05-04T12:03:01.068Z,95858
2023-05-04T12:04:10.666Z,95856
2023-05-04T12:05:19.580Z,95860
2023-05-04T12:06:29.311Z,95857
2023-05-04T12:07:38.127Z,95854
2023-05-04T12:08:46.817Z,95853
2023-05-04T12:09:56.468Z,95851
2023-05-04T12:11:05.196Z,95847
2023-05-04T12:12:13.871Z,95846
2023-05-04T12:13:23.644Z,95840
2023-05-04T12:14:33.271Z,95838
2023-05-04T12:15:42.946Z,95837
2023-05-04T12:16:51.582Z,95837
2023-05-04T12:18:02.926Z,95837
2023-05-04T12:19:09.964Z,95840
2023-05-04T12:20:18.665Z,95838
2023-05-04T12:21:27.305Z,95839
2023-05-04T12:22:37.021Z,95834
2023-05-04T12:23:45.761Z,95829
2023-05-04T12:24:55.412Z,95828
2023-05-04T12:26:04.130Z,95827
2023-05-04T12:27:12.829Z,95828
2023-05-04T12:28:22.481Z,95830
2023-05-04T12:29:30.375Z,95826
2023-05-04T12:30:40.044Z,95820
2023-05-04T12:31:49.881Z,95824
2023-05-04T12:32:57.504Z,95819
2023-05-04T12:34:07.147Z,95822
2023-05-04T12:35:16.866Z,95823
2023-05-04T12:36:25.527Z,95826
2023-05-04T12:37:35.173Z,95820
2023-05-04T12:38:43.879Z,95821
2023-05-04T12:39:52.587Z,95817
2023-05-04T12:41:02.345Z,95821
2023-05-04T12:42:11.028Z,95816
2023-05-04T12:43:21.043Z,95819
2023-05-04T12:44:30.450Z,95822
2023-05-04T12:45:39.288Z,95819
2023-05-04T12:46:48.869Z,95820
2023-05-04T12:47:56.610Z,95820
2023-05-04T12:49:06.190Z,95823
2023-05-04T12:50:15.918Z,95823
2023-05-04T12:51:25.678Z,95817
2023-05-04T12:52:34.370Z,95812
2023-05-04T12:53:44.026Z,95817
2023-05-04T12:54:52.837Z,95812
2023-05-04T12:56:02.547Z,95807
2023-05-04T12:57:11.195Z,95810
2023-05-04T12:58:19.855Z,95806
2023-05-04T12:59:29.907Z,95808
2023-05-04T13:00:37.612Z,95811
2023-05-04T13:01:48.351Z,95807
2023-05-04T13:02:57.950Z,95802
2023-05-04T13:04:06.567Z,95801
2023-05-04T13:05:16.307Z,95798
2023-05-04T13:06:23.967Z,95795
2023-05-04T13:07:32.708Z,95790
2023-05-04T13:08:43.506Z,95795
2023-05-04T13:09:52.262Z,95792
2023-05-04T13:11:00.937Z,95793
2023-05-04T13:12:10.636Z,95785
2023-05-04T13:13:19.391Z,95789
2023-05-04T13:14:29.020Z,95790
2023-05-04T13:15:36.719Z,95789
2023-05-04T13:16:45.375Z,95791
2023-05-04T13:17:55.119Z,95793
2023-05-04T13:19:04.832Z,95787
2023-05-04T13:20:13.549Z,95789
2023-05-04T13:21:23.233Z,95790
2023-05-04T13:22:32.936Z,95789
2023-05-04T13:23:42.646Z,95787
2023-05-04T13:24:52.319Z,95785
2023-05-04T13:26:00.988Z,95785
2023-05-04T13:27:10.639Z,95782
2023-05-04T13:28:18.323Z,95783
2023-05-04T13:29:27.009Z,95789
2023-05-04T13:30:35.705Z,95790
2023-05-04T13:31:45.512Z,95785
2023-05-04T13:32:55.143Z,95779
2023-05-04T13:34:06.085Z,95786
2023-05-04T13:35:15.483Z,95782
2023-05-04T13:36:24.155Z,95781
2023-05-04T13:37:32.862Z,95782
2023-05-04T13:38:43.012Z,95782
2023-05-04T13:39:52.671Z,95782
2023-05-04T13:41:02.376Z,95789
2023-05-04T13:42:12.045Z,95785
2023-05-04T13:43:21.694Z,95782
2023-05-04T13:44:31.383Z,95772
2023-05-04T13:45:41.162Z,95781
2023-05-04T13:46:50.933Z,95777
2023-05-04T13:48:00.625Z,95774
2023-05-04T13:49:09.299Z,95771
2023-05-04T13:50:17.933Z,95764
2023-05-04T13:51:27.617Z,95760
2023-05-04T13:52:36.319Z,95763
2023-05-04T13:53:45.990Z,95769
2023-05-04T13:54:54.673Z,95759
2023-05-04T13:56:04.390Z,95757
2023-05-04T13:57:14.119Z,95748
2023-05-04T13:58:22.772Z,95755
2023-05-04T13:59:32.434Z,95752
2023-05-04T14:00:42.183Z,95751
2023-05-04T14:01:50.866Z,95748
2023-05-04T14:03:00.726Z,95744
2023-05-04T14:04:08.227Z,95745
2023-05-04T14:05:17.958Z,95739
2023-05-04T14:06:27.713Z,95746
2023-05-04T14:07:37.365Z,95751
2023-05-04T14:08:46.026Z,95754
2023-05-04T14:09:55.671Z,95751
2023-05-04T14:11:05.361Z,95740
2023-05-04T14:12:15.026Z,95739
2023-05-04T14:13:23.683Z,95742
2023-05-04T14:14:32.319Z,95742
2023-05-04T14:15:42.004Z,95738
2023-05-04T14:16:50.727Z,95746
2023-05-04T14:18:00.381Z,95735
2023-05-04T14:19:10.974Z,95740
2023-05-04T14:20:20.746Z,95749
2023-05-04T14:21:30.362Z,95746
2023-05-04T14:22:38.366Z,95743
2023-05-04T14:23:46.661Z,95738
2023-05-04T14:24:56.336Z,95740
2023-05-04T14:26:04.055Z,95735
2023-05-04T14:27:12.711Z,95738
2023-05-04T14:28:21.352Z,95731
2023-05-04T14:29:30.049Z,95735
2023-05-04T14:30:39.700Z,95733
2023-05-04T14:31:49.371Z,95728
2023-05-04T14:32:59.038Z,95731
2023-05-04T14:34:08.715Z,95729
2023-05-04T14:35:16.358Z,95734
2023-05-04T14:36:26.137Z,95734
2023-05-04T14:37:35.676Z,95731
2023-05-04T14:38:44.388Z,95728
2023-05-04T14:39:54.038Z,95727
2023-05-04T14:41:02.690Z,95730
2023-05-04T14:42:11.313Z,95728
2023-05-04T14:43:21.015Z,95719
2023-05-04T14:44:28.706Z,95721
2023-05-04T14:45:37.338Z,95724
2023-05-04T14:46:45.985Z,95720
2023-05-04T14:47:55.755Z,95723
2023-05-04T14:49:05.344Z,95721
2023-05-04T14:50:14.998Z,95724